sensor_id;sensor_type;location;lat;lon;timestamp;P1;durP1;ratioP1;P2;durP2;ratioP2
10823;SDS011;39116;59.332;18.034;2022-11-15T00:01:49;1.85;;;1.52;;
10823;SDS011;39116;59.332;18.034;2022-11-15T00:04:16;2.10;;;1.90;;
10823;SDS011;39116;59.332;18.034;2022-11-15T00:06:42;2.47;;;2.28;;
10823;SDS011;39116;59.332;18.034;2022-11-15T00:09:09;3.70;;;2.10;;
10823;SDS011;39116;59.332;18.034;2022-11-15T00:11:35;2.85;;;2.10;;
10823;SDS011;39116;59.332;18.034;2022-11-15T00:14:03;2.63;;;1.95;;
10823;SDS011;39116;59.332;18.034;2022-11-15T00:16:30;1.83;;;1.70;;
10823;SDS011;39116;59.332;18.034;2022-11-15T00:18:56;1.90;;;1.75;;
10823;SDS011;39116;59.332;18.034;2022-11-15T00:21:23;3.35;;;1.80;;
10823;SDS011;39116;59.332;18.034;2022-11-15T00:23:50;1.80;;;1.70;;
10823;SDS011;39116;59.332;18.034;2022-11-15T00:26:16;1.70;;;1.60;;
10823;SDS011;39116;59.332;18.034;2022-11-15T00:28:43;2.97;;;1.88;;
10823;SDS011;39116;59.332;18.034;2022-11-15T00:31:12;1.55;;;1.45;;
10823;SDS011;39116;59.332;18.034;2022-11-15T00:33:38;1.60;;;1.50;;
10823;SDS011;39116;59.332;18.034;2022-11-15T00:36:06;1.60;;;1.50;;
10823;SDS011;39116;59.332;18.034;2022-11-15T00:38:34;2.28;;;1.65;;
10823;SDS011;39116;59.332;18.034;2022-11-15T00:41:02;1.77;;;1.67;;
10823;SDS011;39116;59.332;18.034;2022-11-15T00:43:28;3.35;;;1.60;;
10823;SDS011;39116;59.332;18.034;2022-11-15T00:45:55;1.70;;;1.60;;
10823;SDS011;39116;59.332;18.034;2022-11-15T00:48:23;1.80;;;1.70;;
10823;SDS011;39116;59.332;18.034;2022-11-15T00:50:49;2.05;;;1.58;;
10823;SDS011;39116;59.332;18.034;2022-11-15T00:53:16;2.72;;;1.83;;
10823;SDS011;39116;59.332;18.034;2022-11-15T00:55:42;1.80;;;1.70;;
10823;SDS011;39116;59.332;18.034;2022-11-15T00:58:09;1.88;;;1.65;;
10823;SDS011;39116;59.332;18.034;2022-11-15T01:00:35;2.15;;;1.95;;
10823;SDS011;39116;59.332;18.034;2022-11-15T01:03:02;2.67;;;2.22;;
10823;SDS011;39116;59.332;18.034;2022-11-15T01:05:30;2.20;;;1.90;;
10823;SDS011;39116;59.332;18.034;2022-11-15T01:07:57;2.55;;;2.00;;
10823;SDS011;39116;59.332;18.034;2022-11-15T01:10:23;2.38;;;1.85;;
10823;SDS011;39116;59.332;18.034;2022-11-15T01:12:50;1.60;;;1.50;;
10823;SDS011;39116;59.332;18.034;2022-11-15T01:15:17;1.60;;;1.48;;
10823;SDS011;39116;59.332;18.034;2022-11-15T01:17:44;2.00;;;1.88;;
10823;SDS011;39116;59.332;18.034;2022-11-15T01:20:11;1.95;;;1.70;;
10823;SDS011;39116;59.332;18.034;2022-11-15T01:22:39;2.05;;;1.85;;
10823;SDS011;39116;59.332;18.034;2022-11-15T01:25:05;1.83;;;1.70;;
10823;SDS011;39116;59.332;18.034;2022-11-15T01:27:32;1.88;;;1.77;;
10823;SDS011;39116;59.332;18.034;2022-11-15T01:29:58;1.85;;;1.67;;
10823;SDS011;39116;59.332;18.034;2022-11-15T01:32:25;1.95;;;1.83;;
10823;SDS011;39116;59.332;18.034;2022-11-15T01:34:51;1.88;;;1.67;;
10823;SDS011;39116;59.332;18.034;2022-11-15T01:37:18;3.17;;;2.10;;
10823;SDS011;39116;59.332;18.034;2022-11-15T01:39:46;2.08;;;1.83;;
10823;SDS011;39116;59.332;18.034;2022-11-15T01:42:12;1.90;;;1.70;;
10823;SDS011;39116;59.332;18.034;2022-11-15T01:44:40;1.70;;;1.60;;
10823;SDS011;39116;59.332;18.034;2022-11-15T01:47:08;2.40;;;1.83;;
10823;SDS011;39116;59.332;18.034;2022-11-15T01:49:35;2.03;;;1.67;;
10823;SDS011;39116;59.332;18.034;2022-11-15T01:52:04;2.22;;;1.33;;
10823;SDS011;39116;59.332;18.034;2022-11-15T01:54:32;1.42;;;1.20;;
10823;SDS011;39116;59.332;18.034;2022-11-15T01:57:01;1.77;;;1.25;;
10823;SDS011;39116;59.332;18.034;2022-11-15T01:59:28;0.80;;;0.80;;
10823;SDS011;39116;59.332;18.034;2022-11-15T02:01:54;0.80;;;0.80;;
10823;SDS011;39116;59.332;18.034;2022-11-15T02:04:22;0.98;;;0.90;;
10823;SDS011;39116;59.332;18.034;2022-11-15T02:06:50;2.42;;;1.00;;
10823;SDS011;39116;59.332;18.034;2022-11-15T02:09:16;1.42;;;1.17;;
10823;SDS011;39116;59.332;18.034;2022-11-15T02:11:43;1.88;;;1.48;;
10823;SDS011;39116;59.332;18.034;2022-11-15T02:14:11;2.03;;;1.38;;
10823;SDS011;39116;59.332;18.034;2022-11-15T02:16:42;1.60;;;1.50;;
10823;SDS011;39116;59.332;18.034;2022-11-15T02:19:13;2.17;;;1.90;;
10823;SDS011;39116;59.332;18.034;2022-11-15T02:21:45;2.53;;;2.33;;
10823;SDS011;39116;59.332;18.034;2022-11-15T02:24:23;2.67;;;2.28;;
10823;SDS011;39116;59.332;18.034;2022-11-15T02:26:59;2.45;;;2.25;;
10823;SDS011;39116;59.332;18.034;2022-11-15T02:29:35;2.50;;;2.30;;
10823;SDS011;39116;59.332;18.034;2022-11-15T02:32:09;3.05;;;2.70;;
10823;SDS011;39116;59.332;18.034;2022-11-15T02:34:40;2.60;;;2.20;;
10823;SDS011;39116;59.332;18.034;2022-11-15T02:37:11;2.65;;;2.13;;
10823;SDS011;39116;59.332;18.034;2022-11-15T02:39:41;2.20;;;2.00;;
10823;SDS011;39116;59.332;18.034;2022-11-15T02:42:11;2.85;;;2.17;;
10823;SDS011;39116;59.332;18.034;2022-11-15T02:44:54;3.83;;;2.63;;
10823;SDS011;39116;59.332;18.034;2022-11-15T02:47:23;2.30;;;2.10;;
10823;SDS011;39116;59.332;18.034;2022-11-15T02:49:51;3.05;;;2.40;;
10823;SDS011;39116;59.332;18.034;2022-11-15T02:52:19;2.58;;;2.38;;
10823;SDS011;39116;59.332;18.034;2022-11-15T02:54:52;2.70;;;2.22;;
10823;SDS011;39116;59.332;18.034;2022-11-15T02:57:19;2.90;;;2.42;;
10823;SDS011;39116;59.332;18.034;2022-11-15T02:59:55;2.42;;;2.20;;
10823;SDS011;39116;59.332;18.034;2022-11-15T03:02:30;3.75;;;2.45;;
10823;SDS011;39116;59.332;18.034;2022-11-15T03:05:02;2.58;;;2.28;;
10823;SDS011;39116;59.332;18.034;2022-11-15T03:07:32;2.47;;;2.15;;
10823;SDS011;39116;59.332;18.034;2022-11-15T03:10:05;2.30;;;1.92;;
10823;SDS011;39116;59.332;18.034;2022-11-15T03:12:34;2.20;;;2.00;;
10823;SDS011;39116;59.332;18.034;2022-11-15T03:15:05;1.83;;;1.70;;
10823;SDS011;39116;59.332;18.034;2022-11-15T03:17:34;1.77;;;1.55;;
10823;SDS011;39116;59.332;18.034;2022-11-15T03:20:03;2.00;;;1.65;;
10823;SDS011;39116;59.332;18.034;2022-11-15T03:22:30;2.13;;;1.60;;
10823;SDS011;39116;59.332;18.034;2022-11-15T03:25:00;2.00;;;1.80;;
10823;SDS011;39116;59.332;18.034;2022-11-15T03:27:28;2.40;;;1.70;;
10823;SDS011;39116;59.332;18.034;2022-11-15T03:29:57;1.58;;;1.48;;
10823;SDS011;39116;59.332;18.034;2022-11-15T03:32:26;1.85;;;1.45;;
10823;SDS011;39116;59.332;18.034;2022-11-15T03:34:55;1.70;;;1.60;;
10823;SDS011;39116;59.332;18.034;2022-11-15T03:37:24;1.55;;;1.45;;
10823;SDS011;39116;59.332;18.034;2022-11-15T03:39:53;1.67;;;1.50;;
10823;SDS011;39116;59.332;18.034;2022-11-15T03:42:21;2.58;;;1.85;;
10823;SDS011;39116;59.332;18.034;2022-11-15T03:44:51;1.55;;;1.45;;
10823;SDS011;39116;59.332;18.034;2022-11-15T03:47:19;2.30;;;1.75;;
10823;SDS011;39116;59.332;18.034;2022-11-15T03:49:46;2.58;;;1.88;;
10823;SDS011;39116;59.332;18.034;2022-11-15T03:52:18;2.05;;;1.85;;
10823;SDS011;39116;59.332;18.034;2022-11-15T03:54:49;2.65;;;1.85;;
10823;SDS011;39116;59.332;18.034;2022-11-15T03:57:16;2.03;;;1.75;;
10823;SDS011;39116;59.332;18.034;2022-11-15T03:59:42;2.13;;;1.90;;
10823;SDS011;39116;59.332;18.034;2022-11-15T04:02:09;2.33;;;2.00;;
10823;SDS011;39116;59.332;18.034;2022-11-15T04:04:36;2.33;;;2.13;;
10823;SDS011;39116;59.332;18.034;2022-11-15T04:07:02;2.58;;;2.38;;
10823;SDS011;39116;59.332;18.034;2022-11-15T04:09:30;3.25;;;2.03;;
10823;SDS011;39116;59.332;18.034;2022-11-15T04:11:56;2.47;;;2.08;;
10823;SDS011;39116;59.332;18.034;2022-11-15T04:14:23;2.33;;;2.13;;
10823;SDS011;39116;59.332;18.034;2022-11-15T04:16:50;2.28;;;2.08;;
10823;SDS011;39116;59.332;18.034;2022-11-15T04:19:16;2.40;;;2.20;;
10823;SDS011;39116;59.332;18.034;2022-11-15T04:22:00;3.03;;;2.17;;
10823;SDS011;39116;59.332;18.034;2022-11-15T04:24:45;2.03;;;1.83;;
10823;SDS011;39116;59.332;18.034;2022-11-15T04:27:12;2.30;;;2.10;;
10823;SDS011;39116;59.332;18.034;2022-11-15T04:29:38;2.45;;;2.15;;
10823;SDS011;39116;59.332;18.034;2022-11-15T04:32:05;3.22;;;2.10;;
10823;SDS011;39116;59.332;18.034;2022-11-15T04:34:32;2.17;;;1.98;;
10823;SDS011;39116;59.332;18.034;2022-11-15T04:36:59;4.25;;;1.65;;
10823;SDS011;39116;59.332;18.034;2022-11-15T04:39:41;2.00;;;1.85;;
10823;SDS011;39116;59.332;18.034;2022-11-15T04:42:09;2.47;;;1.98;;
10823;SDS011;39116;59.332;18.034;2022-11-15T04:44:36;2.15;;;1.95;;
10823;SDS011;39116;59.332;18.034;2022-11-15T04:47:03;2.03;;;1.83;;
10823;SDS011;39116;59.332;18.034;2022-11-15T04:49:29;2.40;;;2.10;;
10823;SDS011;39116;59.332;18.034;2022-11-15T04:51:56;2.42;;;1.80;;
10823;SDS011;39116;59.332;18.034;2022-11-15T04:54:22;3.05;;;2.30;;
10823;SDS011;39116;59.332;18.034;2022-11-15T04:56:49;3.15;;;2.38;;
10823;SDS011;39116;59.332;18.034;2022-11-15T04:59:16;3.17;;;2.25;;
10823;SDS011;39116;59.332;18.034;2022-11-15T05:01:43;2.30;;;2.10;;
10823;SDS011;39116;59.332;18.034;2022-11-15T05:04:09;3.17;;;2.00;;
10823;SDS011;39116;59.332;18.034;2022-11-15T05:06:47;2.08;;;1.88;;
10823;SDS011;39116;59.332;18.034;2022-11-15T05:09:14;2.00;;;1.80;;
10823;SDS011;39116;59.332;18.034;2022-11-15T05:11:40;4.70;;;2.40;;
10823;SDS011;39116;59.332;18.034;2022-11-15T05:14:07;3.13;;;2.20;;
10823;SDS011;39116;59.332;18.034;2022-11-15T05:16:35;2.75;;;2.03;;
10823;SDS011;39116;59.332;18.034;2022-11-15T05:19:01;2.80;;;2.50;;
10823;SDS011;39116;59.332;18.034;2022-11-15T05:21:28;2.40;;;2.20;;
10823;SDS011;39116;59.332;18.034;2022-11-15T05:23:55;5.50;;;2.30;;
10823;SDS011;39116;59.332;18.034;2022-11-15T05:26:21;2.85;;;2.10;;
10823;SDS011;39116;59.332;18.034;2022-11-15T05:28:51;4.03;;;2.50;;
10823;SDS011;39116;59.332;18.034;2022-11-15T05:31:18;2.97;;;1.98;;
10823;SDS011;39116;59.332;18.034;2022-11-15T05:33:46;2.88;;;1.95;;
10823;SDS011;39116;59.332;18.034;2022-11-15T05:36:14;2.40;;;2.13;;
10823;SDS011;39116;59.332;18.034;2022-11-15T05:38:42;4.28;;;2.38;;
10823;SDS011;39116;59.332;18.034;2022-11-15T05:41:09;4.40;;;2.40;;
10823;SDS011;39116;59.332;18.034;2022-11-15T05:43:36;3.70;;;2.35;;
10823;SDS011;39116;59.332;18.034;2022-11-15T05:46:04;2.53;;;1.83;;
10823;SDS011;39116;59.332;18.034;2022-11-15T05:48:31;5.60;;;2.30;;
10823;SDS011;39116;59.332;18.034;2022-11-15T05:50:59;3.35;;;2.50;;
10823;SDS011;39116;59.332;18.034;2022-11-15T05:53:27;3.38;;;2.28;;
10823;SDS011;39116;59.332;18.034;2022-11-15T05:55:53;3.47;;;2.00;;
10823;SDS011;39116;59.332;18.034;2022-11-15T05:58:20;6.45;;;2.58;;
10823;SDS011;39116;59.332;18.034;2022-11-15T06:00:46;5.53;;;2.33;;
10823;SDS011;39116;59.332;18.034;2022-11-15T06:03:13;3.20;;;1.80;;
10823;SDS011;39116;59.332;18.034;2022-11-15T06:05:40;3.20;;;2.03;;
10823;SDS011;39116;59.332;18.034;2022-11-15T06:08:08;2.88;;;2.10;;
10823;SDS011;39116;59.332;18.034;2022-11-15T06:10:34;2.63;;;1.85;;
10823;SDS011;39116;59.332;18.034;2022-11-15T06:13:01;2.13;;;1.50;;
10823;SDS011;39116;59.332;18.034;2022-11-15T06:15:28;2.13;;;1.60;;
10823;SDS011;39116;59.332;18.034;2022-11-15T06:17:55;3.00;;;1.65;;
10823;SDS011;39116;59.332;18.034;2022-11-15T06:20:23;5.55;;;1.98;;
10823;SDS011;39116;59.332;18.034;2022-11-15T06:22:49;4.60;;;1.85;;
10823;SDS011;39116;59.332;18.034;2022-11-15T06:25:17;2.65;;;1.73;;
10823;SDS011;39116;59.332;18.034;2022-11-15T06:27:44;4.00;;;1.52;;
10823;SDS011;39116;59.332;18.034;2022-11-15T06:30:16;3.35;;;1.83;;
10823;SDS011;39116;59.332;18.034;2022-11-15T06:32:43;4.38;;;1.70;;
10823;SDS011;39116;59.332;18.034;2022-11-15T06:35:09;2.80;;;1.27;;
10823;SDS011;39116;59.332;18.034;2022-11-15T06:37:36;3.22;;;1.33;;
10823;SDS011;39116;59.332;18.034;2022-11-15T06:40:03;3.15;;;1.50;;
10823;SDS011;39116;59.332;18.034;2022-11-15T06:42:31;4.43;;;1.30;;
10823;SDS011;39116;59.332;18.034;2022-11-15T06:44:57;2.65;;;1.30;;
10823;SDS011;39116;59.332;18.034;2022-11-15T06:47:24;3.05;;;1.40;;
10823;SDS011;39116;59.332;18.034;2022-11-15T06:49:50;3.78;;;1.60;;
10823;SDS011;39116;59.332;18.034;2022-11-15T06:52:17;3.58;;;1.20;;
10823;SDS011;39116;59.332;18.034;2022-11-15T06:54:44;3.47;;;1.30;;
10823;SDS011;39116;59.332;18.034;2022-11-15T06:57:11;3.50;;;1.40;;
10823;SDS011;39116;59.332;18.034;2022-11-15T06:59:39;6.40;;;1.30;;
10823;SDS011;39116;59.332;18.034;2022-11-15T07:02:05;1.98;;;1.30;;
10823;SDS011;39116;59.332;18.034;2022-11-15T07:04:33;5.22;;;1.52;;
10823;SDS011;39116;59.332;18.034;2022-11-15T07:07:01;4.75;;;1.45;;
10823;SDS011;39116;59.332;18.034;2022-11-15T07:09:27;3.90;;;1.50;;
10823;SDS011;39116;59.332;18.034;2022-11-15T07:11:54;2.90;;;1.38;;
10823;SDS011;39116;59.332;18.034;2022-11-15T07:14:20;2.88;;;1.70;;
10823;SDS011;39116;59.332;18.034;2022-11-15T07:16:48;3.78;;;1.40;;
10823;SDS011;39116;59.332;18.034;2022-11-15T07:19:15;2.10;;;1.40;;
10823;SDS011;39116;59.332;18.034;2022-11-15T07:21:41;2.85;;;0.95;;
10823;SDS011;39116;59.332;18.034;2022-11-15T07:24:08;2.33;;;1.40;;
10823;SDS011;39116;59.332;18.034;2022-11-15T07:26:34;3.78;;;1.35;;
10823;SDS011;39116;59.332;18.034;2022-11-15T07:29:01;3.10;;;1.52;;
10823;SDS011;39116;59.332;18.034;2022-11-15T07:31:27;3.92;;;1.60;;
10823;SDS011;39116;59.332;18.034;2022-11-15T07:33:56;2.47;;;1.30;;
10823;SDS011;39116;59.332;18.034;2022-11-15T07:36:22;2.58;;;1.25;;
10823;SDS011;39116;59.332;18.034;2022-11-15T07:38:49;4.28;;;1.30;;
10823;SDS011;39116;59.332;18.034;2022-11-15T07:41:15;2.50;;;1.52;;
10823;SDS011;39116;59.332;18.034;2022-11-15T07:43:42;3.22;;;1.38;;
10823;SDS011;39116;59.332;18.034;2022-11-15T07:46:08;6.50;;;1.52;;
10823;SDS011;39116;59.332;18.034;2022-11-15T07:48:35;3.05;;;1.33;;
10823;SDS011;39116;59.332;18.034;2022-11-15T07:51:03;6.30;;;1.58;;
10823;SDS011;39116;59.332;18.034;2022-11-15T07:53:29;2.60;;;1.55;;
10823;SDS011;39116;59.332;18.034;2022-11-15T07:55:56;2.95;;;1.50;;
10823;SDS011;39116;59.332;18.034;2022-11-15T07:58:23;3.80;;;1.50;;
10823;SDS011;39116;59.332;18.034;2022-11-15T08:00:49;3.58;;;1.55;;
10823;SDS011;39116;59.332;18.034;2022-11-15T08:03:16;1.75;;;1.40;;
10823;SDS011;39116;59.332;18.034;2022-11-15T08:05:43;5.72;;;1.52;;
10823;SDS011;39116;59.332;18.034;2022-11-15T08:08:17;3.70;;;1.52;;
10823;SDS011;39116;59.332;18.034;2022-11-15T08:10:44;2.03;;;1.30;;
10823;SDS011;39116;59.332;18.034;2022-11-15T08:13:11;4.65;;;1.58;;
10823;SDS011;39116;59.332;18.034;2022-11-15T08:15:38;4.57;;;1.85;;
10823;SDS011;39116;59.332;18.034;2022-11-15T08:18:05;2.35;;;1.13;;
10823;SDS011;39116;59.332;18.034;2022-11-15T08:20:32;2.35;;;1.50;;
10823;SDS011;39116;59.332;18.034;2022-11-15T08:23:00;1.98;;;1.30;;
10823;SDS011;39116;59.332;18.034;2022-11-15T08:25:28;3.78;;;1.30;;
10823;SDS011;39116;59.332;18.034;2022-11-15T08:27:55;3.38;;;1.33;;
10823;SDS011;39116;59.332;18.034;2022-11-15T08:30:22;2.72;;;1.33;;
10823;SDS011;39116;59.332;18.034;2022-11-15T08:32:49;3.60;;;1.50;;
10823;SDS011;39116;59.332;18.034;2022-11-15T08:35:16;3.00;;;1.50;;
10823;SDS011;39116;59.332;18.034;2022-11-15T08:37:43;5.28;;;1.55;;
10823;SDS011;39116;59.332;18.034;2022-11-15T08:40:09;2.30;;;1.20;;
10823;SDS011;39116;59.332;18.034;2022-11-15T08:42:37;3.63;;;1.23;;
10823;SDS011;39116;59.332;18.034;2022-11-15T08:45:04;6.38;;;1.70;;
10823;SDS011;39116;59.332;18.034;2022-11-15T08:47:31;1.83;;;1.23;;
10823;SDS011;39116;59.332;18.034;2022-11-15T08:49:57;5.63;;;1.77;;
10823;SDS011;39116;59.332;18.034;2022-11-15T08:52:24;1.45;;;1.13;;
10823;SDS011;39116;59.332;18.034;2022-11-15T08:54:50;3.78;;;1.30;;
10823;SDS011;39116;59.332;18.034;2022-11-15T08:57:17;5.57;;;1.38;;
10823;SDS011;39116;59.332;18.034;2022-11-15T08:59:45;2.95;;;1.20;;
10823;SDS011;39116;59.332;18.034;2022-11-15T09:02:12;2.85;;;1.00;;
10823;SDS011;39116;59.332;18.034;2022-11-15T09:04:40;1.90;;;1.00;;
10823;SDS011;39116;59.332;18.034;2022-11-15T09:07:07;1.80;;;0.90;;
10823;SDS011;39116;59.332;18.034;2022-11-15T09:09:33;2.60;;;1.08;;
10823;SDS011;39116;59.332;18.034;2022-11-15T09:12:00;5.03;;;1.35;;
10823;SDS011;39116;59.332;18.034;2022-11-15T09:14:26;1.92;;;1.02;;
10823;SDS011;39116;59.332;18.034;2022-11-15T09:16:54;3.47;;;1.13;;
10823;SDS011;39116;59.332;18.034;2022-11-15T09:19:21;3.35;;;1.15;;
10823;SDS011;39116;59.332;18.034;2022-11-15T09:21:47;1.20;;;0.85;;
10823;SDS011;39116;59.332;18.034;2022-11-15T09:24:14;2.38;;;1.10;;
10823;SDS011;39116;59.332;18.034;2022-11-15T09:26:41;2.83;;;1.23;;
10823;SDS011;39116;59.332;18.034;2022-11-15T09:29:07;3.35;;;1.25;;
10823;SDS011;39116;59.332;18.034;2022-11-15T09:31:34;3.90;;;0.95;;
10823;SDS011;39116;59.332;18.034;2022-11-15T09:34:01;4.45;;;1.42;;
10823;SDS011;39116;59.332;18.034;2022-11-15T09:36:28;4.63;;;1.48;;
10823;SDS011;39116;59.332;18.034;2022-11-15T09:38:54;1.90;;;1.42;;
10823;SDS011;39116;59.332;18.034;2022-11-15T09:44:07;3.60;;;1.00;;
10823;SDS011;39116;59.332;18.034;2022-11-15T09:46:38;2.47;;;1.20;;
10823;SDS011;39116;59.332;18.034;2022-11-15T09:49:10;2.10;;;1.20;;
10823;SDS011;39116;59.332;18.034;2022-11-15T09:51:40;3.50;;;1.10;;
10823;SDS011;39116;59.332;18.034;2022-11-15T09:54:13;2.45;;;1.17;;
10823;SDS011;39116;59.332;18.034;2022-11-15T09:56:43;1.52;;;1.02;;
10823;SDS011;39116;59.332;18.034;2022-11-15T10:02:00;3.72;;;1.20;;
10823;SDS011;39116;59.332;18.034;2022-11-15T10:04:32;2.28;;;0.85;;
10823;SDS011;39116;59.332;18.034;2022-11-15T10:07:01;2.65;;;1.23;;
10823;SDS011;39116;59.332;18.034;2022-11-15T10:09:29;2.97;;;1.00;;
10823;SDS011;39116;59.332;18.034;2022-11-15T10:11:56;2.35;;;0.90;;
10823;SDS011;39116;59.332;18.034;2022-11-15T10:14:24;1.92;;;1.20;;
10823;SDS011;39116;59.332;18.034;2022-11-15T10:17:13;2.13;;;1.00;;
10823;SDS011;39116;59.332;18.034;2022-11-15T10:19:49;2.60;;;1.08;;
10823;SDS011;39116;59.332;18.034;2022-11-15T10:22:21;3.53;;;1.00;;
10823;SDS011;39116;59.332;18.034;2022-11-15T10:24:50;1.88;;;0.90;;
10823;SDS011;39116;59.332;18.034;2022-11-15T10:27:18;1.20;;;0.80;;
10823;SDS011;39116;59.332;18.034;2022-11-15T10:29:45;1.70;;;1.10;;
10823;SDS011;39116;59.332;18.034;2022-11-15T10:32:12;1.95;;;0.70;;
10823;SDS011;39116;59.332;18.034;2022-11-15T10:34:39;2.13;;;0.90;;
10823;SDS011;39116;59.332;18.034;2022-11-15T10:37:07;2.80;;;1.00;;
10823;SDS011;39116;59.332;18.034;2022-11-15T10:39:34;2.10;;;0.90;;
10823;SDS011;39116;59.332;18.034;2022-11-15T10:42:14;3.42;;;1.23;;
10823;SDS011;39116;59.332;18.034;2022-11-15T10:44:42;2.50;;;1.00;;
10823;SDS011;39116;59.332;18.034;2022-11-15T10:47:23;1.95;;;0.93;;
10823;SDS011;39116;59.332;18.034;2022-11-15T10:50:00;2.17;;;0.98;;
10823;SDS011;39116;59.332;18.034;2022-11-15T10:52:28;2.08;;;0.95;;
10823;SDS011;39116;59.332;18.034;2022-11-15T10:54:57;1.88;;;1.17;;
10823;SDS011;39116;59.332;18.034;2022-11-15T10:57:25;3.05;;;1.10;;
10823;SDS011;39116;59.332;18.034;2022-11-15T10:59:53;2.03;;;0.93;;
10823;SDS011;39116;59.332;18.034;2022-11-15T11:02:27;1.40;;;0.90;;
10823;SDS011;39116;59.332;18.034;2022-11-15T11:04:54;1.70;;;1.02;;
10823;SDS011;39116;59.332;18.034;2022-11-15T11:07:22;1.80;;;0.98;;
10823;SDS011;39116;59.332;18.034;2022-11-15T11:09:56;2.45;;;1.17;;
10823;SDS011;39116;59.332;18.034;2022-11-15T11:12:26;3.78;;;1.20;;
10823;SDS011;39116;59.332;18.034;2022-11-15T11:14:53;1.65;;;1.20;;
10823;SDS011;39116;59.332;18.034;2022-11-15T11:17:21;1.38;;;1.05;;
10823;SDS011;39116;59.332;18.034;2022-11-15T11:19:54;3.58;;;1.13;;
10823;SDS011;39116;59.332;18.034;2022-11-15T11:22:24;1.75;;;1.00;;
10823;SDS011;39116;59.332;18.034;2022-11-15T11:24:58;3.25;;;1.33;;
10823;SDS011;39116;59.332;18.034;2022-11-15T11:27:33;4.10;;;1.52;;
10823;SDS011;39116;59.332;18.034;2022-11-15T11:30:03;3.58;;;1.17;;
10823;SDS011;39116;59.332;18.034;2022-11-15T11:32:46;2.58;;;1.20;;
10823;SDS011;39116;59.332;18.034;2022-11-15T11:35:17;1.40;;;1.02;;
10823;SDS011;39116;59.332;18.034;2022-11-15T11:37:56;1.85;;;1.20;;
10823;SDS011;39116;59.332;18.034;2022-11-15T11:40:29;6.65;;;1.35;;
10823;SDS011;39116;59.332;18.034;2022-11-15T11:42:58;1.75;;;1.30;;
10823;SDS011;39116;59.332;18.034;2022-11-15T11:48:10;2.97;;;1.42;;
10823;SDS011;39116;59.332;18.034;2022-11-15T11:50:38;3.50;;;1.88;;
10823;SDS011;39116;59.332;18.034;2022-11-15T11:53:05;2.83;;;1.58;;
10823;SDS011;39116;59.332;18.034;2022-11-15T11:55:37;2.45;;;1.33;;
10823;SDS011;39116;59.332;18.034;2022-11-15T11:58:06;3.30;;;1.35;;
10823;SDS011;39116;59.332;18.034;2022-11-15T12:00:38;2.30;;;1.42;;
10823;SDS011;39116;59.332;18.034;2022-11-15T12:03:08;3.38;;;1.40;;
10823;SDS011;39116;59.332;18.034;2022-11-15T12:05:36;2.13;;;1.25;;
10823;SDS011;39116;59.332;18.034;2022-11-15T12:08:04;2.92;;;1.23;;
10823;SDS011;39116;59.332;18.034;2022-11-15T12:10:37;3.47;;;1.42;;
10823;SDS011;39116;59.332;18.034;2022-11-15T12:13:06;2.85;;;1.17;;
10823;SDS011;39116;59.332;18.034;2022-11-15T12:15:35;3.30;;;1.25;;
10823;SDS011;39116;59.332;18.034;2022-11-15T12:18:03;2.15;;;1.20;;
10823;SDS011;39116;59.332;18.034;2022-11-15T12:20:32;4.75;;;1.55;;
10823;SDS011;39116;59.332;18.034;2022-11-15T12:23:01;1.45;;;1.35;;
10823;SDS011;39116;59.332;18.034;2022-11-15T12:25:33;4.38;;;1.25;;
10823;SDS011;39116;59.332;18.034;2022-11-15T12:28:06;2.05;;;1.40;;
10823;SDS011;39116;59.332;18.034;2022-11-15T12:30:45;2.38;;;1.30;;
10823;SDS011;39116;59.332;18.034;2022-11-15T12:33:33;3.90;;;1.60;;
10823;SDS011;39116;59.332;18.034;2022-11-15T12:36:01;2.45;;;1.17;;
10823;SDS011;39116;59.332;18.034;2022-11-15T12:41:22;2.38;;;1.48;;
10823;SDS011;39116;59.332;18.034;2022-11-15T12:43:50;1.50;;;1.40;;
10823;SDS011;39116;59.332;18.034;2022-11-15T12:46:21;3.05;;;1.83;;
10823;SDS011;39116;59.332;18.034;2022-11-15T12:48:52;3.17;;;1.55;;
10823;SDS011;39116;59.332;18.034;2022-11-15T12:51:22;3.72;;;1.60;;
10823;SDS011;39116;59.332;18.034;2022-11-15T12:53:49;4.07;;;1.25;;
10823;SDS011;39116;59.332;18.034;2022-11-15T12:56:24;4.00;;;1.27;;
10823;SDS011;39116;59.332;18.034;2022-11-15T12:58:56;1.48;;;1.00;;
10823;SDS011;39116;59.332;18.034;2022-11-15T13:04:11;2.28;;;1.30;;
10823;SDS011;39116;59.332;18.034;2022-11-15T13:06:39;4.45;;;1.65;;
10823;SDS011;39116;59.332;18.034;2022-11-15T13:11:51;7.85;;;1.10;;
10823;SDS011;39116;59.332;18.034;2022-11-15T13:17:11;2.92;;;1.23;;
10823;SDS011;39116;59.332;18.034;2022-11-15T13:19:39;5.15;;;1.30;;
10823;SDS011;39116;59.332;18.034;2022-11-15T13:22:06;3.45;;;1.30;;
10823;SDS011;39116;59.332;18.034;2022-11-15T13:24:51;2.20;;;1.05;;
10823;SDS011;39116;59.332;18.034;2022-11-15T13:27:18;2.55;;;1.35;;
10823;SDS011;39116;59.332;18.034;2022-11-15T13:29:45;3.33;;;1.38;;
10823;SDS011;39116;59.332;18.034;2022-11-15T13:32:13;1.92;;;1.20;;
10823;SDS011;39116;59.332;18.034;2022-11-15T13:34:42;3.65;;;1.20;;
10823;SDS011;39116;59.332;18.034;2022-11-15T13:37:11;3.03;;;1.10;;
10823;SDS011;39116;59.332;18.034;2022-11-15T13:39:39;2.92;;;1.23;;
10823;SDS011;39116;59.332;18.034;2022-11-15T13:42:10;2.40;;;1.15;;
10823;SDS011;39116;59.332;18.034;2022-11-15T13:44:40;1.60;;;1.17;;
10823;SDS011;39116;59.332;18.034;2022-11-15T13:47:21;4.20;;;1.15;;
10823;SDS011;39116;59.332;18.034;2022-11-15T13:49:51;4.45;;;1.40;;
10823;SDS011;39116;59.332;18.034;2022-11-15T13:52:18;5.63;;;1.20;;
10823;SDS011;39116;59.332;18.034;2022-11-15T13:54:46;2.65;;;0.95;;
10823;SDS011;39116;59.332;18.034;2022-11-15T13:57:14;1.52;;;1.13;;
10823;SDS011;39116;59.332;18.034;2022-11-15T13:59:44;2.67;;;1.17;;
10823;SDS011;39116;59.332;18.034;2022-11-15T14:02:12;2.28;;;1.10;;
10823;SDS011;39116;59.332;18.034;2022-11-15T14:04:46;3.80;;;1.10;;
10823;SDS011;39116;59.332;18.034;2022-11-15T14:07:15;8.00;;;1.33;;
10823;SDS011;39116;59.332;18.034;2022-11-15T14:09:42;3.60;;;1.27;;
10823;SDS011;39116;59.332;18.034;2022-11-15T14:12:22;3.55;;;1.33;;
10823;SDS011;39116;59.332;18.034;2022-11-15T14:14:49;3.65;;;1.10;;
10823;SDS011;39116;59.332;18.034;2022-11-15T14:17:19;1.95;;;1.20;;
10823;SDS011;39116;59.332;18.034;2022-11-15T14:19:47;2.50;;;1.08;;
10823;SDS011;39116;59.332;18.034;2022-11-15T14:22:14;3.88;;;1.23;;
10823;SDS011;39116;59.332;18.034;2022-11-15T14:24:41;2.60;;;1.20;;
10823;SDS011;39116;59.332;18.034;2022-11-15T14:29:50;3.10;;;1.30;;
10823;SDS011;39116;59.332;18.034;2022-11-15T14:32:17;2.00;;;1.20;;
10823;SDS011;39116;59.332;18.034;2022-11-15T14:34:44;5.60;;;1.40;;
10823;SDS011;39116;59.332;18.034;2022-11-15T14:37:18;2.25;;;1.20;;
10823;SDS011;39116;59.332;18.034;2022-11-15T14:39:45;2.35;;;1.20;;
10823;SDS011;39116;59.332;18.034;2022-11-15T14:42:11;2.58;;;1.10;;
10823;SDS011;39116;59.332;18.034;2022-11-15T14:44:38;3.03;;;1.30;;
10823;SDS011;39116;59.332;18.034;2022-11-15T14:47:04;3.78;;;1.30;;
10823;SDS011;39116;59.332;18.034;2022-11-15T14:49:31;4.28;;;1.70;;
10823;SDS011;39116;59.332;18.034;2022-11-15T14:51:59;4.15;;;1.48;;
10823;SDS011;39116;59.332;18.034;2022-11-15T14:54:27;2.65;;;1.63;;
10823;SDS011;39116;59.332;18.034;2022-11-15T14:56:53;2.70;;;1.45;;
10823;SDS011;39116;59.332;18.034;2022-11-15T14:59:20;3.50;;;1.63;;
10823;SDS011;39116;59.332;18.034;2022-11-15T15:01:46;3.40;;;1.27;;
10823;SDS011;39116;59.332;18.034;2022-11-15T15:04:13;2.35;;;1.20;;